Flugplatz Memmingen Allgau

Bericht für EDJA

vom 27.06. um 07:20 UTC

Wind 6 kt aus 230°

Sichtweite 10 km oder mehr

gute Sicht, keine Wolken < 5000 ft, keine CB, keine Wettererscheinungen (CAVOK)

Temperatur 26.0°C

Taupunkt 19.0°C

Luftfeuchtigkeit 65%

Luftdruck 1025 hPa

EDJA 270720Z 23006KT CAVOK 26/19 Q1025

Prognose für EDJA

vom 27.06. um 00:00 UTC

Zwischen 00:00 UTC und 00:00 UTC

variable Windrichtung mit 3 kt

Sichtweite 10 km oder mehr

keine signifikanten Wettererscheinungen

keine Wolken


Zwischen 00:00 und 00:00 UTC übergehend zu

Wind 5 kt aus 350°

Sichtweite 10 km oder mehr

keine signifikanten Wettererscheinungen

keine Wolken

TAF EDJA 270500Z 2706/2715 VRB03KT CAVOK BECMG 2708/2710 35005KT
Impressum